Airfield :
LOGIN :

Register | Disclaimer

   EN    FR    IT 

 










Legend :    VFR   Marginal VFR   IFR   Intensive IFR   Very Intensive IFR
Visi :
Ceiling :
>= 8 km
>= 3000ft
5 to 8 km
1000 to 3000 ft
1500m to 5 km
500 to 1000 ft
800 to 1500m
200 to 500 ft
< 800m
< 200 ft
Symbols :   Thunderstorms  Fog  Heavy snow  Heavy precipitations  Wind > 20 kt
SIGMETs :     Misc.  Thunderstorms  Icing  Turbulence  Mountain Waves  Volcanic Ashes






- Airport Elevation : 1071 ft
- IATA code : LWO


UKLL - L'viv

CURRENT METAR :
  • 281730Z 21003MPS CAVOK 04/00 Q1002 R13/290055 NOSIG

EXPIRED METARs :
  • 281700Z 21003MPS CAVOK 05/00 Q1002 R13/290055 NOSIG
  • 281630Z 19003MPS CAVOK 05/00 Q1003 R13/290055 NOSIG
  • 281600Z 19004MPS 9999 OVC043 05/00 Q1002 R13/290055 NOSIG
  • 281530Z 19004MPS 9999 -RA OVC032 05/01 Q1003 R13/CLRD// NOSIG
  • 281500Z 19005MPS 9999 -RA OVC034 05/00 Q1003 R13/D NOSIG

TAF TAF UKLL
Valid from the 28 at 18:00 until the 29 at 18:00 UTC


281706Z 2818/2918 21003MPS 3000 BR SCT004 BKN007 TX04/2818Z TN01/2904Z
TEMPO 2818/2821 -SHRA BKN020CB
TEMPO 2821/2903 0800 +SHRASN BKN003 BKN015CB
BECMG 2903/2905 27007G14MPS
TEMPO 2905/2918 2100 -SHRASN BKN004 BKN020CB



MET'MAP, your aeronautical weather chart ! - Copyright ORBIFLY December 2007 - Disclaimer

ORBIFLY MET'MAP TEAM :

Programming & Development : Alexandra Zaïnal
Concept & original design : Baudouin d'Aumeries
Assistance for programming : Marc-Olivier Méhu
Technical & hardware support : Manuel Goepfert

Contact : metmap@orbifly.com




SOURCES & CREDITS :

   NOAA